createdAt,value
2022-10-11T00:02:07.106Z,1.83
2022-10-11T00:04:33.831Z,1.70
2022-10-11T00:07:00.637Z,1.70
2022-10-11T00:09:27.465Z,1.67
2022-10-11T00:11:57.519Z,1.50
2022-10-11T00:14:26.173Z,1.87
2022-10-11T00:16:53.593Z,1.50
2022-10-11T00:19:20.951Z,1.27
2022-10-11T00:21:47.817Z,1.07
2022-10-11T00:24:16.131Z,1.60
2022-10-11T00:26:46.578Z,1.50
2022-10-11T00:29:14.384Z,1.33
2022-10-11T00:31:41.260Z,1.33
2022-10-11T00:34:08.431Z,1.83
2022-10-11T00:36:35.193Z,1.60
2022-10-11T00:39:01.933Z,1.33
2022-10-11T00:41:28.744Z,1.87
2022-10-11T00:44:24.929Z,2.00
2022-10-11T00:47:02.286Z,1.33
2022-10-11T00:50:01.142Z,1.53
2022-10-11T00:52:39.093Z,1.70
2022-10-11T00:55:11.328Z,1.63
2022-10-11T00:57:43.865Z,2.03
2022-10-11T01:00:13.768Z,1.20
2022-10-11T01:02:41.186Z,1.40
2022-10-11T01:05:28.644Z,1.93
2022-10-11T01:07:57.749Z,1.37
2022-10-11T01:10:24.660Z,1.57
2022-10-11T01:13:06.806Z,1.67
2022-10-11T01:15:50.666Z,1.70
2022-10-11T01:18:22.122Z,1.20
2022-10-11T01:21:16.069Z,1.40
2022-10-11T01:24:20.442Z,2.00
2022-10-11T01:27:25.914Z,1.50
2022-10-11T01:30:06.010Z,1.50
2022-10-11T01:32:44.632Z,1.57
2022-10-11T01:35:24.872Z,1.50
2022-10-11T01:38:18.983Z,1.60
2022-10-11T01:40:51.136Z,1.70
2022-10-11T01:43:20.496Z,1.57
2022-10-11T01:45:51.512Z,1.57
2022-10-11T01:48:18.707Z,1.57
2022-10-11T01:50:57.234Z,1.40
2022-10-11T01:53:39.528Z,1.73
2022-10-11T01:56:43.282Z,1.70
2022-10-11T01:59:31.887Z,2.07
2022-10-11T02:02:38.484Z,1.53
2022-10-11T02:05:20.277Z,1.20
2022-10-11T02:07:59.629Z,1.80
2022-10-11T02:10:26.349Z,1.40
2022-10-11T02:13:06.331Z,1.23
2022-10-11T02:15:36.350Z,1.53
2022-10-11T02:18:10.040Z,1.60
2022-10-11T02:20:40.456Z,1.30
2022-10-11T02:23:15.425Z,1.20
2022-10-11T02:25:44.045Z,1.67
2022-10-11T02:28:16.594Z,1.63
2022-10-11T02:30:46.205Z,1.30
2022-10-11T02:33:18.438Z,1.50
2022-10-11T02:35:50.142Z,1.60
2022-10-11T02:38:22.844Z,1.90
2022-10-11T02:40:56.503Z,1.10
2022-10-11T02:43:41.637Z,1.80
2022-10-11T02:46:10.354Z,1.20
2022-10-11T02:48:37.714Z,1.50
2022-10-11T02:51:05.011Z,1.60
2022-10-11T02:53:32.227Z,1.47
2022-10-11T02:55:59.004Z,1.70
2022-10-11T02:58:25.794Z,1.87
2022-10-11T03:00:52.601Z,1.50
2022-10-11T03:03:19.388Z,1.43
2022-10-11T03:05:46.252Z,1.17
2022-10-11T03:08:15.897Z,1.50
2022-10-11T03:10:43.204Z,1.33
2022-10-11T03:13:10.009Z,1.33
2022-10-11T03:15:36.776Z,1.47
2022-10-11T03:18:03.632Z,2.60
2022-10-11T03:20:30.377Z,1.50
2022-10-11T03:22:57.176Z,1.57
2022-10-11T03:25:23.985Z,1.80
2022-10-11T03:27:50.991Z,1.60
2022-10-11T03:30:18.444Z,1.20
2022-10-11T03:32:45.869Z,2.07
2022-10-11T03:35:12.766Z,1.57
2022-10-11T03:37:39.505Z,1.50
2022-10-11T03:40:08.397Z,1.17
2022-10-11T03:42:35.773Z,1.53
2022-10-11T03:45:05.088Z,1.70
2022-10-11T03:47:32.293Z,1.57
2022-10-11T03:49:59.057Z,1.50
2022-10-11T03:52:25.863Z,2.13
2022-10-11T03:54:52.823Z,1.07
2022-10-11T03:57:19.905Z,1.40
2022-10-11T03:59:46.744Z,1.77
2022-10-11T04:02:13.731Z,1.53
2022-10-11T04:04:40.577Z,1.40
2022-10-11T04:07:07.895Z,1.60
2022-10-11T04:09:35.037Z,1.37
2022-10-11T04:12:01.786Z,2.10
2022-10-11T04:14:28.646Z,1.37
2022-10-11T04:16:59.523Z,1.90
2022-10-11T04:19:27.426Z,1.10
2022-10-11T04:21:54.189Z,1.53
2022-10-11T04:24:20.969Z,1.10
2022-10-11T04:26:48.403Z,1.70
2022-10-11T04:29:15.296Z,2.03
2022-10-11T04:31:42.054Z,1.50
2022-10-11T04:34:08.811Z,1.70
2022-10-11T04:36:35.741Z,1.50
2022-10-11T04:39:03.543Z,1.73
2022-10-11T04:41:30.321Z,1.73
2022-10-11T04:43:57.029Z,1.20
2022-10-11T04:46:24.322Z,1.13
2022-10-11T04:48:51.606Z,1.70
2022-10-11T04:51:18.935Z,1.83
2022-10-11T04:53:45.744Z,1.33
2022-10-11T04:56:12.628Z,1.77
2022-10-11T04:58:42.904Z,1.70
2022-10-11T05:01:09.917Z,2.07
2022-10-11T05:03:37.734Z,1.77
2022-10-11T05:06:06.083Z,1.70
2022-10-11T05:08:33.772Z,2.00
2022-10-11T05:11:03.967Z,1.73
2022-10-11T05:13:32.164Z,1.40
2022-10-11T05:15:58.955Z,1.93
2022-10-11T05:18:26.672Z,1.73
2022-10-11T05:21:22.713Z,1.80
2022-10-11T05:23:51.106Z,1.30
2022-10-11T05:26:19.591Z,1.87
2022-10-11T05:28:47.320Z,2.53
2022-10-11T05:31:14.419Z,1.90
2022-10-11T05:33:41.602Z,2.07
2022-10-11T05:36:09.762Z,1.67
2022-10-11T05:38:37.811Z,4.17
2022-10-11T05:41:05.392Z,2.77
2022-10-11T05:43:32.719Z,2.33
2022-10-11T05:45:59.764Z,2.10
2022-10-11T05:48:26.936Z,2.40
2022-10-11T05:50:59.853Z,2.20
2022-10-11T05:53:26.880Z,2.93
2022-10-11T05:55:53.647Z,2.13
2022-10-11T05:58:20.659Z,2.17
2022-10-11T06:00:47.428Z,2.77
2022-10-11T06:03:15.244Z,2.57
2022-10-11T06:05:42.148Z,3.00
2022-10-11T06:08:11.154Z,3.00
2022-10-11T06:10:38.631Z,2.63
2022-10-11T06:13:07.263Z,2.13
2022-10-11T06:15:34.554Z,2.10
2022-10-11T06:18:01.517Z,2.43
2022-10-11T06:20:28.341Z,2.20
2022-10-11T06:22:55.220Z,2.33
2022-10-11T06:25:22.053Z,2.80
2022-10-11T06:27:48.874Z,2.77
2022-10-11T06:30:15.797Z,2.37
2022-10-11T06:32:42.783Z,2.60
2022-10-11T06:35:09.617Z,2.83
2022-10-11T06:37:36.462Z,2.93
2022-10-11T06:40:04.023Z,2.80
2022-10-11T06:42:30.764Z,2.13
2022-10-11T06:44:57.584Z,2.23
2022-10-11T06:47:24.451Z,2.60
2022-10-11T06:49:51.331Z,2.17
2022-10-11T06:52:18.067Z,2.57
2022-10-11T06:54:45.672Z,2.03
2022-10-11T06:57:12.669Z,2.13
2022-10-11T06:59:39.452Z,1.87
2022-10-11T07:02:06.170Z,2.30
2022-10-11T07:04:34.073Z,2.13
2022-10-11T07:07:00.980Z,2.30
2022-10-11T07:09:27.741Z,2.10
2022-10-11T07:11:54.502Z,2.30
2022-10-11T07:14:21.353Z,3.30
2022-10-11T07:16:48.470Z,2.10
2022-10-11T07:19:15.485Z,2.73
2022-10-11T07:21:42.323Z,2.17
2022-10-11T07:24:09.452Z,2.20
2022-10-11T07:26:38.925Z,1.83
2022-10-11T07:29:10.765Z,3.13
2022-10-11T07:31:40.550Z,2.50
2022-10-11T07:34:07.667Z,2.30
2022-10-11T07:36:35.110Z,2.30
2022-10-11T07:39:05.075Z,2.43
2022-10-11T07:41:31.807Z,2.70
2022-10-11T07:43:58.565Z,2.27
2022-10-11T07:46:25.330Z,2.10
2022-10-11T07:48:52.227Z,3.03
2022-10-11T07:51:21.509Z,1.63
2022-10-11T07:53:50.985Z,2.00
2022-10-11T07:56:20.549Z,2.10
2022-10-11T07:58:51.716Z,1.97
2022-10-11T08:01:19.503Z,2.10
2022-10-11T08:03:47.353Z,2.10
2022-10-11T08:06:16.346Z,2.60
2022-10-11T08:08:43.185Z,2.43
2022-10-11T08:11:10.505Z,2.57
2022-10-11T08:13:37.630Z,1.83
2022-10-11T08:16:11.085Z,1.63
2022-10-11T08:18:37.903Z,2.00
2022-10-11T08:21:11.762Z,1.87
2022-10-11T08:23:39.845Z,2.38
2022-10-11T08:26:07.575Z,2.00
2022-10-11T08:28:37.067Z,2.00
2022-10-11T08:31:04.245Z,1.65
2022-10-11T08:33:31.258Z,1.70
2022-10-11T08:35:58.433Z,1.98
2022-10-11T08:38:25.410Z,1.50
2022-10-11T08:40:55.667Z,1.77
2022-10-11T08:44:00.212Z,1.88
2022-10-11T08:46:31.941Z,1.80
2022-10-11T08:49:01.462Z,1.65
2022-10-11T08:51:33.689Z,1.70
2022-10-11T08:54:38.824Z,1.85
2022-10-11T08:57:07.061Z,1.60
2022-10-11T08:59:47.937Z,1.58
2022-10-11T09:03:06.545Z,1.80
2022-10-11T09:05:34.084Z,1.45
2022-10-11T09:08:39.399Z,1.33
2022-10-11T09:11:19.487Z,1.60
2022-10-11T09:14:07.455Z,1.45
2022-10-11T09:16:51.321Z,1.95
2022-10-11T09:19:42.339Z,1.80
2022-10-11T09:22:33.658Z,1.23
2022-10-11T09:25:41.980Z,2.15
2022-10-11T09:28:22.078Z,1.65
2022-10-11T09:30:52.738Z,1.48
2022-10-11T09:33:23.934Z,1.40
2022-10-11T09:35:52.532Z,1.70
2022-10-11T09:38:31.535Z,1.60
2022-10-11T09:41:07.802Z,1.83
2022-10-11T09:43:34.718Z,1.60
2022-10-11T09:46:01.507Z,1.42
2022-10-11T09:48:40.271Z,1.70
2022-10-11T09:51:17.029Z,1.50
2022-10-11T09:53:55.985Z,1.75
2022-10-11T09:56:25.269Z,1.38
2022-10-11T09:59:26.347Z,1.40
2022-10-11T10:02:08.077Z,1.52
2022-10-11T10:04:34.898Z,1.08
2022-10-11T10:07:13.151Z,1.55
2022-10-11T10:09:40.049Z,1.58
2022-10-11T10:12:19.699Z,1.40
2022-10-11T10:15:03.559Z,1.73
2022-10-11T10:17:30.702Z,1.35
2022-10-11T10:20:00.462Z,1.50
2022-10-11T10:22:33.366Z,1.42
2022-10-11T10:25:03.253Z,1.73
2022-10-11T10:27:31.760Z,1.45
2022-10-11T10:30:19.467Z,1.38
2022-10-11T10:33:03.912Z,1.30
2022-10-11T10:35:32.906Z,1.52
2022-10-11T10:38:07.625Z,1.30
2022-10-11T10:40:42.809Z,1.27
2022-10-11T10:43:15.703Z,1.45
2022-10-11T10:45:48.508Z,1.60
2022-10-11T10:48:24.969Z,1.30
2022-10-11T10:50:59.015Z,1.08
2022-10-11T10:53:40.811Z,1.58
2022-10-11T10:56:15.508Z,1.27
2022-10-11T10:59:11.489Z,1.20
2022-10-11T11:02:21.436Z,1.63
2022-10-11T11:07:46.273Z,1.27
2022-10-11T11:10:19.140Z,1.15
2022-10-11T11:13:10.649Z,1.27
2022-10-11T11:15:44.961Z,1.83
2022-10-11T11:18:47.193Z,1.75
2022-10-11T11:21:26.873Z,2.53
2022-10-11T11:24:22.330Z,1.45
2022-10-11T11:27:10.108Z,1.67
2022-10-11T11:29:59.402Z,1.50
2022-10-11T11:32:38.852Z,1.50
2022-10-11T11:35:33.388Z,1.42
2022-10-11T11:38:29.254Z,1.20
2022-10-11T11:41:05.256Z,1.63
2022-10-11T11:43:39.460Z,1.98
2022-10-11T11:46:18.658Z,1.50
2022-10-11T11:48:46.972Z,1.70
2022-10-11T11:51:31.316Z,1.70
2022-10-11T11:54:16.903Z,1.30
2022-10-11T11:57:05.729Z,1.63
2022-10-11T11:59:43.938Z,1.40
2022-10-11T12:02:24.790Z,1.65
2022-10-11T12:04:53.021Z,1.25
2022-10-11T12:07:22.973Z,1.25
2022-10-11T12:09:54.587Z,1.75
2022-10-11T12:12:39.774Z,1.65
2022-10-11T12:15:09.848Z,1.25
2022-10-11T12:17:54.782Z,1.17
2022-10-11T12:20:25.282Z,1.08
2022-10-11T12:23:00.988Z,1.40
2022-10-11T12:25:28.616Z,1.20
2022-10-11T12:28:02.522Z,1.15
2022-10-11T12:30:44.556Z,1.00
2022-10-11T12:33:14.357Z,1.20
2022-10-11T12:35:55.677Z,1.20
2022-10-11T12:38:28.571Z,0.90
2022-10-11T12:41:19.895Z,1.10
2022-10-11T12:43:49.643Z,1.35
2022-10-11T12:46:28.559Z,1.17
2022-10-11T12:49:23.472Z,1.15
2022-10-11T12:52:01.036Z,1.00
2022-10-11T12:54:43.094Z,1.13
2022-10-11T12:57:12.196Z,1.52
2022-10-11T12:59:45.412Z,1.08
2022-10-11T13:02:38.158Z,0.82
2022-10-11T13:05:15.361Z,1.25
2022-10-11T13:07:43.265Z,1.15
2022-10-11T13:10:16.299Z,1.05
2022-10-11T13:12:46.637Z,1.00
2022-10-11T13:15:17.367Z,1.35
2022-10-11T13:17:44.237Z,1.20
2022-10-11T13:20:17.633Z,1.33
2022-10-11T13:22:50.538Z,1.10
2022-10-11T13:25:23.525Z,1.42
2022-10-11T13:27:52.749Z,1.20
2022-10-11T13:30:24.972Z,1.05
2022-10-11T13:32:52.798Z,1.20
2022-10-11T13:35:36.294Z,1.20
2022-10-11T13:38:10.726Z,1.05
2022-10-11T13:40:38.954Z,1.30
2022-10-11T13:43:06.209Z,1.10
2022-10-11T13:45:35.865Z,1.13
2022-10-11T13:48:03.217Z,1.10
2022-10-11T13:50:34.590Z,1.00
2022-10-11T13:53:23.044Z,1.20
2022-10-11T13:55:55.711Z,1.20
2022-10-11T13:58:46.325Z,1.08
2022-10-11T14:01:26.971Z,0.95
2022-10-11T14:03:59.134Z,1.30
2022-10-11T14:06:40.489Z,1.20
2022-10-11T14:09:16.861Z,0.90
2022-10-11T14:11:43.620Z,1.17
2022-10-11T14:14:30.097Z,1.50
2022-10-11T14:17:03.982Z,1.45
2022-10-11T14:19:30.742Z,0.93
2022-10-11T14:21:57.542Z,1.40
2022-10-11T14:24:24.330Z,1.10
2022-10-11T14:26:54.526Z,1.25
2022-10-11T14:29:24.309Z,1.40
2022-10-11T14:31:52.607Z,0.98
2022-10-11T14:34:22.448Z,0.95
2022-10-11T14:36:50.637Z,1.38
2022-10-11T14:39:19.998Z,1.00
2022-10-11T14:41:47.258Z,1.08
2022-10-11T14:44:14.927Z,1.08
2022-10-11T14:46:42.692Z,1.17
2022-10-11T14:49:14.662Z,1.45
2022-10-11T14:51:42.891Z,1.38
2022-10-11T14:54:09.826Z,1.65
2022-10-11T14:56:36.605Z,1.25
2022-10-11T14:59:03.536Z,1.50
2022-10-11T15:01:30.414Z,1.65
2022-10-11T15:03:57.229Z,10.77
2022-10-11T15:06:32.059Z,4.22
2022-10-11T15:08:58.910Z,2.55
2022-10-11T15:11:26.477Z,10.60
2022-10-11T15:13:55.935Z,12.43
2022-10-11T15:16:23.273Z,25.13
2022-10-11T15:18:52.861Z,31.80
2022-10-11T15:21:23.289Z,15.32
2022-10-11T15:23:53.471Z,18.38
2022-10-11T15:26:24.223Z,40.42
2022-10-11T15:28:52.935Z,34.10
2022-10-11T15:31:20.368Z,33.13
2022-10-11T15:33:47.316Z,23.05
2022-10-11T15:36:22.333Z,20.08
2022-10-11T15:38:49.652Z,10.68
2022-10-11T15:41:19.931Z,17.67
2022-10-11T15:43:49.170Z,17.60
2022-10-11T15:46:20.110Z,7.68
2022-10-11T15:48:48.627Z,7.53
2022-10-11T15:51:16.373Z,10.25
2022-10-11T15:53:43.694Z,21.85
2022-10-11T15:56:19.560Z,14.48
2022-10-11T15:58:46.805Z,13.38
2022-10-11T16:01:19.419Z,12.63
2022-10-11T16:03:47.859Z,14.65
2022-10-11T16:06:15.565Z,15.77
2022-10-11T16:08:42.366Z,21.47
2022-10-11T16:11:10.593Z,23.27
2022-10-11T16:13:38.110Z,24.10
2022-10-11T16:16:07.542Z,23.73
2022-10-11T16:18:35.919Z,18.77
2022-10-11T16:21:09.803Z,22.60
2022-10-11T16:23:37.019Z,14.63
2022-10-11T16:26:07.582Z,12.83
2022-10-11T16:28:34.815Z,11.23
2022-10-11T16:31:08.591Z,10.10
2022-10-11T16:33:35.436Z,9.50
2022-10-11T16:36:26.256Z,9.57
2022-10-11T16:38:52.996Z,9.53
2022-10-11T16:41:19.774Z,9.17
2022-10-11T16:43:50.748Z,7.03
2022-10-11T16:46:17.969Z,5.90
2022-10-11T16:48:45.055Z,5.30
2022-10-11T16:51:11.910Z,3.70
2022-10-11T16:53:38.831Z,3.30
2022-10-11T16:56:10.044Z,5.83
2022-10-11T16:58:36.965Z,3.17
2022-10-11T17:01:08.827Z,3.30
2022-10-11T17:03:35.702Z,2.73
2022-10-11T17:06:03.344Z,2.57
2022-10-11T17:08:30.607Z,1.83
2022-10-11T17:10:58.068Z,2.17
2022-10-11T17:13:25.203Z,13.80
2022-10-11T17:15:51.999Z,3.60
2022-10-11T17:18:19.009Z,3.13
2022-10-11T17:20:46.234Z,2.27
2022-10-11T17:23:13.098Z,3.40
2022-10-11T17:25:46.929Z,2.20
2022-10-11T17:28:13.759Z,1.77
2022-10-11T17:30:42.109Z,1.50
2022-10-11T17:33:09.354Z,1.80
2022-10-11T17:35:36.631Z,1.70
2022-10-11T17:38:06.385Z,2.10
2022-10-11T17:40:33.447Z,1.80
2022-10-11T17:43:00.247Z,1.83
2022-10-11T17:45:27.157Z,1.67
2022-10-11T17:47:54.126Z,1.67
2022-10-11T17:50:20.966Z,1.83
2022-10-11T17:52:47.963Z,1.73
2022-10-11T17:55:15.020Z,1.50
2022-10-11T17:57:41.849Z,1.57
2022-10-11T18:00:09.329Z,2.30
2022-10-11T18:02:36.185Z,2.40
2022-10-11T18:05:04.250Z,3.50
2022-10-11T18:07:31.091Z,2.20
2022-10-11T18:09:58.003Z,2.40
2022-10-11T18:12:25.981Z,2.10
2022-10-11T18:14:52.954Z,2.13
2022-10-11T18:17:19.834Z,2.03
2022-10-11T18:19:46.686Z,2.27
2022-10-11T18:22:13.610Z,2.03
2022-10-11T18:24:41.469Z,2.43
2022-10-11T18:27:08.388Z,2.40
2022-10-11T18:29:35.201Z,2.67
2022-10-11T18:32:02.054Z,2.33
2022-10-11T18:34:28.950Z,2.47
2022-10-11T18:36:55.904Z,1.93
2022-10-11T18:39:22.743Z,3.23
2022-10-11T18:41:49.873Z,2.87
2022-10-11T18:44:16.880Z,2.63
2022-10-11T18:46:44.901Z,3.17
2022-10-11T18:49:12.442Z,2.77
2022-10-11T18:51:41.752Z,3.00
2022-10-11T18:54:12.892Z,2.80
2022-10-11T18:56:42.510Z,2.70
2022-10-11T18:59:10.749Z,2.30
2022-10-11T19:01:40.497Z,2.20
2022-10-11T19:04:09.843Z,2.90
2022-10-11T19:06:40.072Z,2.67
2022-10-11T19:09:13.255Z,2.63
2022-10-11T19:11:41.270Z,3.07
2022-10-11T19:14:14.820Z,3.00
2022-10-11T19:16:45.419Z,3.03
2022-10-11T19:19:13.007Z,3.53
2022-10-11T19:21:39.931Z,3.30
2022-10-11T19:24:07.055Z,2.63
2022-10-11T19:26:37.125Z,3.00
2022-10-11T19:29:07.808Z,3.07
2022-10-11T19:31:36.648Z,3.20
2022-10-11T19:34:03.822Z,3.00
2022-10-11T19:36:36.230Z,2.80
2022-10-11T19:39:04.396Z,2.80
2022-10-11T19:41:31.837Z,3.20
2022-10-11T19:43:59.618Z,3.17
2022-10-11T19:46:49.812Z,4.00
2022-10-11T19:49:17.505Z,4.17
2022-10-11T19:51:44.746Z,2.73
2022-10-11T19:54:14.173Z,3.13
2022-10-11T19:56:42.493Z,4.40
2022-10-11T19:59:11.153Z,5.90
2022-10-11T20:01:38.171Z,4.17
2022-10-11T20:04:07.743Z,3.13
2022-10-11T20:06:38.529Z,3.43
2022-10-11T20:11:55.506Z,3.93
2022-10-11T20:14:22.497Z,4.73
2022-10-11T20:16:50.462Z,5.50
2022-10-11T20:19:17.773Z,4.50
2022-10-11T20:21:45.277Z,5.63
2022-10-11T20:24:12.585Z,5.30
2022-10-11T20:26:39.497Z,6.07
2022-10-11T20:29:06.519Z,4.07
2022-10-11T20:31:34.731Z,3.67
2022-10-11T20:34:04.246Z,6.67
2022-10-11T20:36:32.045Z,4.50
2022-10-11T20:38:59.983Z,3.70
2022-10-11T20:41:31.245Z,4.27
2022-10-11T20:43:59.460Z,4.43
2022-10-11T20:46:30.051Z,4.47
2022-10-11T20:49:02.517Z,3.73
2022-10-11T20:51:31.146Z,4.60
2022-10-11T20:53:59.276Z,3.50
2022-10-11T20:56:26.780Z,4.17
2022-10-11T20:58:55.780Z,3.77
2022-10-11T21:01:26.291Z,3.10
2022-10-11T21:03:53.951Z,3.83
2022-10-11T21:06:20.940Z,2.90
2022-10-11T21:08:47.791Z,2.70
2022-10-11T21:11:14.620Z,3.43
2022-10-11T21:13:41.412Z,2.73
2022-10-11T21:16:12.565Z,3.20
2022-10-11T21:18:39.559Z,3.63
2022-10-11T21:21:14.013Z,3.33
2022-10-11T21:23:41.570Z,3.27
2022-10-11T21:26:11.366Z,3.33
2022-10-11T21:28:39.400Z,2.57
2022-10-11T21:31:08.280Z,3.33
2022-10-11T21:33:35.903Z,2.80
2022-10-11T21:36:07.477Z,3.17
2022-10-11T21:38:34.541Z,3.20
2022-10-11T21:41:10.041Z,2.97
2022-10-11T21:43:38.430Z,3.00
2022-10-11T21:46:09.300Z,3.27
2022-10-11T21:48:36.074Z,2.60
2022-10-11T21:51:03.011Z,3.20
2022-10-11T21:53:30.052Z,3.80
2022-10-11T21:56:01.071Z,3.30
2022-10-11T21:58:28.314Z,3.60
2022-10-11T22:00:55.086Z,4.43
2022-10-11T22:03:21.897Z,3.70
2022-10-11T22:05:48.996Z,3.73
2022-10-11T22:08:15.829Z,4.63
2022-10-11T22:10:44.241Z,3.70
2022-10-11T22:13:11.577Z,3.83
2022-10-11T22:15:39.395Z,3.80
2022-10-11T22:18:06.161Z,3.77
2022-10-11T22:20:33.818Z,4.13
2022-10-11T22:23:00.995Z,3.73
2022-10-11T22:25:28.827Z,3.33
2022-10-11T22:27:55.564Z,4.27
2022-10-11T22:30:22.400Z,3.87
2022-10-11T22:32:51.385Z,3.67
2022-10-11T22:35:20.683Z,4.27
2022-10-11T22:37:47.509Z,4.43
2022-10-11T22:40:14.278Z,4.67
2022-10-11T22:42:41.054Z,5.30
2022-10-11T22:45:08.241Z,6.07
2022-10-11T22:47:35.208Z,6.00
2022-10-11T22:50:02.116Z,6.97
2022-10-11T22:52:29.051Z,6.50
2022-10-11T22:54:55.800Z,7.03
2022-10-11T22:57:22.848Z,6.83
2022-10-11T22:59:49.571Z,7.17
2022-10-11T23:02:16.267Z,6.53
2022-10-11T23:04:42.957Z,6.80
2022-10-11T23:07:09.697Z,6.30
2022-10-11T23:09:36.400Z,5.47
2022-10-11T23:12:03.129Z,6.23
2022-10-11T23:14:29.850Z,6.37
2022-10-11T23:16:56.564Z,6.93
2022-10-11T23:19:23.345Z,6.67
2022-10-11T23:21:50.208Z,6.23
2022-10-11T23:24:16.981Z,7.07
2022-10-11T23:26:43.757Z,7.03
2022-10-11T23:29:10.577Z,6.13
2022-10-11T23:31:37.305Z,6.60
2022-10-11T23:34:04.051Z,5.97
2022-10-11T23:36:30.810Z,4.37
2022-10-11T23:38:58.814Z,5.20
2022-10-11T23:41:27.837Z,6.37
2022-10-11T23:43:54.707Z,5.23
2022-10-11T23:46:22.195Z,4.07
2022-10-11T23:48:48.960Z,3.73
2022-10-11T23:51:15.669Z,4.30
2022-10-11T23:53:42.643Z,3.87
2022-10-11T23:56:10.657Z,4.37
2022-10-11T23:58:37.656Z,3.70
